createdAt,value
2019-02-15T00:00:09.188Z,3.49
2019-02-15T00:01:09.150Z,3.50
2019-02-15T00:02:09.132Z,3.57
2019-02-15T00:03:09.149Z,3.47
2019-02-15T00:04:09.110Z,3.47
2019-02-15T00:05:09.240Z,3.62
2019-02-15T00:06:09.088Z,3.49
2019-02-15T00:07:09.083Z,3.57
2019-02-15T00:08:09.084Z,3.54
2019-02-15T00:09:09.059Z,3.65
2019-02-15T00:10:09.059Z,3.65
2019-02-15T00:11:09.030Z,3.65
2019-02-15T00:12:09.024Z,3.68
2019-02-15T00:13:13.654Z,3.71
2019-02-15T00:14:09.000Z,3.79
2019-02-15T00:15:09.010Z,3.67
2019-02-15T00:16:08.973Z,3.62
2019-02-15T00:17:08.971Z,3.79
2019-02-15T00:18:08.962Z,3.65
2019-02-15T00:19:08.954Z,3.65
2019-02-15T00:20:08.943Z,3.75
2019-02-15T00:21:08.965Z,3.68
2019-02-15T00:22:08.911Z,3.60
2019-02-15T00:23:08.903Z,3.71
2019-02-15T00:24:08.898Z,3.60
2019-02-15T00:25:08.882Z,3.67
2019-02-15T00:26:08.872Z,3.60
2019-02-15T00:27:08.875Z,3.54
2019-02-15T00:28:08.836Z,3.54
2019-02-15T00:29:08.835Z,3.57
2019-02-15T00:30:08.830Z,3.54
2019-02-15T00:31:08.820Z,3.53
2019-02-15T00:32:08.837Z,3.46
2019-02-15T00:33:08.796Z,3.50
2019-02-15T00:34:08.783Z,3.49
2019-02-15T00:35:08.768Z,3.50
2019-02-15T00:36:08.751Z,3.53
2019-02-15T00:37:08.744Z,3.60
2019-02-15T00:38:08.771Z,3.46
2019-02-15T00:39:08.733Z,3.50
2019-02-15T00:40:08.720Z,3.50
2019-02-15T00:41:08.711Z,3.44
2019-02-15T00:42:08.688Z,3.44
2019-02-15T00:43:08.680Z,3.44
2019-02-15T00:44:08.699Z,3.57
2019-02-15T00:45:08.674Z,3.52
2019-02-15T00:46:08.647Z,3.46
2019-02-15T00:47:08.631Z,3.42
2019-02-15T00:48:08.625Z,3.25
2019-02-15T00:49:08.644Z,3.25
2019-02-15T00:50:08.613Z,3.30
2019-02-15T00:51:08.660Z,3.21
2019-02-15T00:52:08.597Z,3.07
2019-02-15T00:53:08.594Z,3.02
2019-02-15T00:54:08.560Z,3.03
2019-02-15T00:55:08.573Z,2.95
2019-02-15T00:56:08.546Z,2.91
2019-02-15T00:57:08.531Z,2.88
2019-02-15T00:58:08.529Z,2.91
2019-02-15T00:59:08.519Z,2.89
2019-02-15T01:00:08.559Z,2.89
2019-02-15T01:01:08.489Z,2.85
2019-02-15T01:02:08.487Z,2.84
2019-02-15T01:03:08.470Z,2.85
2019-02-15T01:04:08.458Z,2.84
2019-02-15T01:05:08.445Z,2.82
2019-02-15T01:06:08.443Z,2.79
2019-02-15T01:07:08.415Z,2.85
2019-02-15T01:08:08.398Z,2.81
2019-02-15T01:09:08.449Z,2.76
2019-02-15T01:10:08.402Z,2.88
2019-02-15T01:11:08.401Z,2.82
2019-02-15T01:12:08.382Z,2.92
2019-02-15T01:13:08.369Z,2.91
2019-02-15T01:14:08.346Z,3.05
2019-02-15T01:15:08.333Z,3.03
2019-02-15T01:16:08.365Z,3.03
2019-02-15T01:17:08.321Z,3.13
2019-02-15T01:18:08.299Z,3.02
2019-02-15T01:19:08.288Z,2.98
2019-02-15T01:20:08.269Z,3.07
2019-02-15T01:21:08.259Z,3.07
2019-02-15T01:22:08.285Z,2.98
2019-02-15T01:23:08.249Z,2.95
2019-02-15T01:24:08.245Z,2.92
2019-02-15T01:25:08.234Z,2.88
2019-02-15T01:26:08.210Z,2.95
2019-02-15T01:27:08.222Z,2.88
2019-02-15T01:28:08.188Z,2.85
2019-02-15T01:29:08.183Z,2.81
2019-02-15T01:30:08.180Z,2.81
2019-02-15T01:31:08.173Z,2.74
2019-02-15T01:32:08.169Z,2.63
2019-02-15T01:33:08.145Z,2.71
2019-02-15T01:34:08.133Z,2.69
2019-02-15T01:35:08.140Z,2.56
2019-02-15T01:36:08.115Z,2.56
2019-02-15T01:37:08.129Z,2.59
2019-02-15T01:38:08.084Z,2.58
2019-02-15T01:39:08.069Z,2.52
2019-02-15T01:40:08.057Z,2.56
2019-02-15T01:41:08.050Z,2.58
2019-02-15T01:42:08.054Z,2.55
2019-02-15T01:43:08.059Z,2.59
2019-02-15T01:44:08.025Z,2.61
2019-02-15T01:45:08.015Z,2.51
2019-02-15T01:46:07.993Z,2.59
2019-02-15T01:47:08.001Z,2.59
2019-02-15T01:48:08.014Z,2.56
2019-02-15T01:49:07.975Z,2.46
2019-02-15T01:50:07.959Z,2.46
2019-02-15T01:51:07.942Z,2.45
2019-02-15T01:52:07.937Z,2.48
2019-02-15T01:53:07.917Z,2.34
2019-02-15T01:54:07.934Z,2.35
2019-02-15T01:55:07.910Z,2.34
2019-02-15T01:56:07.905Z,2.37
2019-02-15T01:57:07.886Z,2.40
2019-02-15T01:58:07.868Z,2.40
2019-02-15T01:59:07.875Z,2.40
2019-02-15T02:00:07.845Z,2.37
2019-02-15T02:01:07.829Z,2.41
2019-02-15T02:02:07.837Z,2.58
2019-02-15T02:03:07.819Z,2.56
2019-02-15T02:04:07.846Z,2.66
2019-02-15T02:05:07.784Z,2.77
2019-02-15T02:06:07.788Z,2.84
2019-02-15T02:07:07.775Z,2.91
2019-02-15T02:08:07.765Z,2.87
2019-02-15T02:09:07.757Z,2.82
2019-02-15T02:10:07.758Z,2.85
2019-02-15T02:11:07.720Z,2.94
2019-02-15T02:12:07.714Z,2.91
2019-02-15T02:13:07.699Z,2.95
2019-02-15T02:14:07.702Z,2.91
2019-02-15T02:15:07.706Z,3.03
2019-02-15T02:16:07.676Z,3.05
2019-02-15T02:17:07.670Z,3.05
2019-02-15T02:18:07.645Z,2.95
2019-02-15T02:19:07.646Z,3.03
2019-02-15T02:20:07.671Z,2.92
2019-02-15T02:21:07.622Z,2.88
2019-02-15T02:22:07.610Z,2.84
2019-02-15T02:23:07.623Z,2.91
2019-02-15T02:24:07.583Z,2.79
2019-02-15T02:25:07.571Z,2.76
2019-02-15T02:26:07.615Z,2.73
2019-02-15T02:27:07.554Z,2.70
2019-02-15T02:28:07.555Z,2.66
2019-02-15T02:29:07.540Z,2.67
2019-02-15T02:30:07.522Z,2.66
2019-02-15T02:31:07.539Z,2.66
2019-02-15T02:32:07.500Z,2.59
2019-02-15T02:33:07.480Z,2.59
2019-02-15T02:34:07.490Z,2.56
2019-02-15T02:35:07.469Z,2.69
2019-02-15T02:36:07.457Z,2.63
2019-02-15T02:37:07.461Z,2.70
2019-02-15T02:38:07.448Z,2.70
2019-02-15T02:39:07.436Z,2.67
2019-02-15T02:40:07.420Z,2.66
2019-02-15T02:41:07.422Z,2.63
2019-02-15T02:42:07.413Z,2.56
2019-02-15T02:43:07.381Z,2.55
2019-02-15T02:44:07.365Z,2.48
2019-02-15T02:45:07.358Z,2.46
2019-02-15T02:46:07.355Z,2.38
2019-02-15T02:47:07.356Z,2.37
2019-02-15T02:48:07.363Z,2.37
2019-02-15T02:49:07.318Z,2.34
2019-02-15T02:50:07.300Z,2.38
2019-02-15T02:51:07.292Z,2.38
2019-02-15T02:52:07.289Z,2.41
2019-02-15T02:53:07.275Z,2.46
2019-02-15T02:54:07.266Z,2.37
2019-02-15T02:55:07.251Z,2.37
2019-02-15T02:56:07.241Z,2.40
2019-02-15T02:57:07.226Z,2.44
2019-02-15T02:58:07.215Z,2.30
2019-02-15T02:59:07.230Z,2.22
2019-02-15T03:00:07.205Z,2.19
2019-02-15T03:01:07.227Z,2.26
2019-02-15T03:02:07.171Z,2.19
2019-02-15T03:03:07.179Z,2.19
2019-02-15T03:04:07.172Z,2.19
2019-02-15T03:05:07.140Z,2.12
2019-02-15T03:06:07.190Z,2.15
2019-02-15T03:07:07.122Z,2.13
2019-02-15T03:08:07.110Z,2.10
2019-02-15T03:09:07.125Z,2.13
2019-02-15T03:10:07.096Z,2.20
2019-02-15T03:11:07.081Z,2.35
2019-02-15T03:12:07.077Z,2.31
2019-02-15T03:13:07.059Z,2.34
2019-02-15T03:14:11.363Z,2.33
2019-02-15T03:15:07.065Z,2.40
2019-02-15T03:16:07.017Z,2.38
2019-02-15T03:17:07.006Z,2.35
2019-02-15T03:18:07.001Z,2.35
2019-02-15T03:19:07.004Z,2.19
2019-02-15T03:20:07.006Z,2.27
2019-02-15T03:21:06.974Z,2.15
2019-02-15T03:22:06.954Z,2.13
2019-02-15T03:23:06.949Z,2.02
2019-02-15T03:24:06.952Z,2.16
2019-02-15T03:25:06.974Z,2.17
2019-02-15T03:26:06.935Z,2.15
2019-02-15T03:27:06.905Z,2.19
2019-02-15T03:28:06.899Z,2.23
2019-02-15T03:29:06.876Z,2.46
2019-02-15T03:30:06.875Z,2.46
2019-02-15T03:31:06.885Z,2.46
2019-02-15T03:32:06.877Z,2.45
2019-02-15T03:33:06.898Z,2.55
2019-02-15T03:34:06.844Z,2.58
2019-02-15T03:35:06.826Z,2.52
2019-02-15T03:36:06.826Z,2.55
2019-02-15T03:37:06.813Z,2.55
2019-02-15T03:38:06.786Z,2.56
2019-02-15T03:39:06.799Z,2.59
2019-02-15T03:40:06.779Z,2.56
2019-02-15T03:41:06.759Z,2.66
2019-02-15T03:42:06.765Z,2.55
2019-02-15T03:43:06.723Z,2.56
2019-02-15T03:44:06.717Z,2.55
2019-02-15T03:45:06.819Z,2.58
2019-02-15T03:46:06.698Z,2.56
2019-02-15T03:47:06.679Z,2.56
2019-02-15T03:48:06.699Z,2.64
2019-02-15T03:49:06.657Z,2.53
2019-02-15T03:50:06.657Z,2.46
2019-02-15T03:51:06.649Z,2.49
2019-02-15T03:52:06.676Z,2.49
2019-02-15T03:53:06.620Z,2.41
2019-02-15T03:54:06.601Z,2.37
2019-02-15T03:55:06.601Z,2.40
2019-02-15T03:56:06.589Z,2.45
2019-02-15T03:57:06.592Z,2.35
2019-02-15T03:58:06.591Z,2.35
2019-02-15T03:59:06.549Z,2.33
2019-02-15T04:00:06.542Z,2.34
2019-02-15T04:01:06.529Z,2.38
2019-02-15T04:02:06.531Z,2.37
2019-02-15T04:03:06.538Z,2.45
2019-02-15T04:04:06.510Z,2.44
2019-02-15T04:05:06.496Z,2.46
2019-02-15T04:06:06.472Z,2.41
2019-02-15T04:07:06.461Z,2.34
2019-02-15T04:08:06.486Z,2.45
2019-02-15T04:09:06.448Z,2.31
2019-02-15T04:10:06.445Z,2.26
2019-02-15T04:11:06.448Z,2.23
2019-02-15T04:12:06.410Z,2.17
2019-02-15T04:13:06.397Z,2.13
2019-02-15T04:14:06.412Z,2.15
2019-02-15T04:15:06.387Z,2.10
2019-02-15T04:16:06.369Z,2.17
2019-02-15T04:17:06.374Z,2.17
2019-02-15T04:18:06.345Z,2.16
2019-02-15T04:19:06.363Z,2.19
2019-02-15T04:20:06.319Z,2.19
2019-02-15T04:21:06.314Z,2.17
2019-02-15T04:22:06.306Z,2.20
2019-02-15T04:23:06.306Z,2.08
2019-02-15T04:24:06.286Z,2.16
2019-02-15T04:25:06.309Z,2.09
2019-02-15T04:26:06.326Z,2.08
2019-02-15T04:27:06.259Z,2.08
2019-02-15T04:28:06.247Z,2.01
2019-02-15T04:29:06.242Z,1.89
2019-02-15T04:30:06.229Z,1.87
2019-02-15T04:31:06.207Z,1.93
2019-02-15T04:32:06.213Z,1.85
2019-02-15T04:33:06.183Z,1.82
2019-02-15T04:34:06.180Z,1.78
2019-02-15T04:35:06.193Z,1.79
2019-02-15T04:36:06.159Z,1.90
2019-02-15T04:37:06.143Z,1.91
2019-02-15T04:38:06.128Z,1.89
2019-02-15T04:39:06.110Z,1.89
2019-02-15T04:40:06.121Z,1.89
2019-02-15T04:41:06.100Z,1.87
2019-02-15T04:42:06.098Z,1.82
2019-02-15T04:43:06.098Z,1.80
2019-02-15T04:44:06.067Z,1.87
2019-02-15T04:45:06.085Z,1.75
2019-02-15T04:46:06.051Z,1.72
2019-02-15T04:47:06.043Z,1.71
2019-02-15T04:48:06.053Z,1.68
2019-02-15T04:49:06.019Z,1.76
2019-02-15T04:50:06.015Z,1.71
2019-02-15T04:51:05.985Z,1.73
2019-02-15T04:52:05.983Z,1.76
2019-02-15T04:53:05.966Z,1.78
2019-02-15T04:54:05.964Z,1.64
2019-02-15T04:55:05.977Z,1.68
2019-02-15T04:56:05.937Z,1.71
2019-02-15T04:57:05.933Z,1.65
2019-02-15T04:58:05.912Z,1.68
2019-02-15T04:59:05.935Z,1.69
2019-02-15T05:00:05.938Z,1.65
2019-02-15T05:01:05.890Z,1.65
2019-02-15T05:02:05.865Z,1.57
2019-02-15T05:03:05.957Z,1.55
2019-02-15T05:04:05.860Z,1.55
2019-02-15T05:05:05.835Z,1.52
2019-02-15T05:06:05.854Z,1.55
2019-02-15T05:07:05.821Z,1.57
2019-02-15T05:08:05.806Z,1.43
2019-02-15T05:09:05.797Z,1.54
2019-02-15T05:10:05.777Z,1.58
2019-02-15T05:11:05.797Z,1.55
2019-02-15T05:12:05.760Z,1.62
2019-02-15T05:13:05.744Z,1.68
2019-02-15T05:14:05.746Z,1.73
2019-02-15T05:15:05.741Z,1.80
2019-02-15T05:16:05.713Z,1.80
2019-02-15T05:17:05.729Z,1.80
2019-02-15T05:18:05.703Z,1.79
2019-02-15T05:19:05.688Z,1.79
2019-02-15T05:20:05.677Z,1.80
2019-02-15T05:21:05.684Z,1.89
2019-02-15T05:22:05.669Z,1.89
2019-02-15T05:23:05.649Z,1.91
2019-02-15T05:24:05.624Z,1.98
2019-02-15T05:25:05.614Z,1.91
2019-02-15T05:26:05.617Z,1.89
2019-02-15T05:27:05.626Z,1.91
2019-02-15T05:28:05.595Z,1.93
2019-02-15T05:29:05.583Z,1.91
2019-02-15T05:30:05.570Z,1.82
2019-02-15T05:31:05.554Z,1.90
2019-02-15T05:32:05.564Z,1.89
2019-02-15T05:33:05.532Z,1.91
2019-02-15T05:34:05.517Z,1.91
2019-02-15T05:35:05.510Z,2.02
2019-02-15T05:36:05.493Z,2.15
2019-02-15T05:37:05.511Z,2.15
2019-02-15T05:38:05.478Z,2.13
2019-02-15T05:39:05.470Z,2.08
2019-02-15T05:40:05.459Z,2.13
2019-02-15T05:41:05.457Z,2.16
2019-02-15T05:42:05.433Z,2.13
2019-02-15T05:43:05.439Z,2.02
2019-02-15T05:44:05.413Z,2.01
2019-02-15T05:45:05.427Z,1.98
2019-02-15T05:46:05.397Z,1.98
2019-02-15T05:47:05.387Z,2.04
2019-02-15T05:48:05.384Z,1.98
2019-02-15T05:49:05.355Z,1.99
2019-02-15T05:50:05.358Z,2.06
2019-02-15T05:51:05.346Z,1.90
2019-02-15T05:52:05.334Z,1.89
2019-02-15T05:53:05.342Z,1.90
2019-02-15T05:54:05.321Z,1.90
2019-02-15T05:55:05.299Z,1.91
2019-02-15T05:56:05.279Z,1.80
2019-02-15T05:57:05.265Z,1.85
2019-02-15T05:58:05.318Z,1.90
2019-02-15T05:59:05.277Z,1.83
2019-02-15T06:00:05.245Z,1.91
2019-02-15T06:01:05.236Z,1.98
2019-02-15T06:02:05.218Z,1.93
2019-02-15T06:03:05.239Z,1.87
2019-02-15T06:04:05.209Z,1.82
2019-02-15T06:05:05.197Z,1.90
2019-02-15T06:06:05.170Z,1.89
2019-02-15T06:07:05.165Z,1.83
2019-02-15T06:08:05.165Z,1.93
2019-02-15T06:09:05.145Z,1.93
2019-02-15T06:10:05.143Z,1.90
2019-02-15T06:11:07.964Z,1.91
2019-02-15T06:12:05.114Z,1.91
2019-02-15T06:13:05.124Z,1.89
2019-02-15T06:14:05.090Z,1.79
2019-02-15T06:15:14.721Z,1.93
2019-02-15T06:16:06.059Z,1.85
2019-02-15T06:17:05.051Z,1.85
2019-02-15T06:18:05.062Z,1.79
2019-02-15T06:19:05.060Z,1.83
2019-02-15T06:20:05.009Z,1.93
2019-02-15T06:21:05.014Z,1.90
2019-02-15T06:22:05.005Z,1.98
2019-02-15T06:23:04.994Z,1.87
2019-02-15T06:24:05.009Z,1.91
2019-02-15T06:25:04.979Z,1.89
2019-02-15T06:26:04.972Z,1.90
2019-02-15T06:27:04.948Z,1.76
2019-02-15T06:28:04.933Z,1.76
2019-02-15T06:29:04.941Z,1.79
2019-02-15T06:30:04.919Z,1.76
2019-02-15T06:31:04.910Z,1.80
2019-02-15T06:32:04.901Z,1.76
2019-02-15T06:33:04.887Z,1.80
2019-02-15T06:34:04.882Z,1.79
2019-02-15T06:35:04.850Z,1.79
2019-02-15T06:36:04.853Z,1.75
2019-02-15T06:37:04.839Z,1.80
2019-02-15T06:38:04.818Z,1.87
2019-02-15T06:39:04.854Z,1.73
2019-02-15T06:40:04.796Z,1.72
2019-02-15T06:41:04.790Z,1.91
2019-02-15T06:42:04.793Z,2.12
2019-02-15T06:43:04.779Z,2.56
2019-02-15T06:44:04.802Z,2.92
2019-02-15T06:45:04.753Z,3.40
2019-02-15T06:46:04.733Z,3.67
2019-02-15T06:47:04.718Z,3.97
2019-02-15T06:48:04.713Z,4.06
2019-02-15T06:49:04.698Z,4.34
2019-02-15T06:50:04.719Z,4.54
2019-02-15T06:51:04.684Z,4.70
2019-02-15T06:52:04.681Z,4.91
2019-02-15T06:53:04.657Z,4.99
2019-02-15T06:54:04.674Z,5.16
2019-02-15T06:55:04.642Z,5.41
2019-02-15T06:56:04.652Z,5.57
2019-02-15T06:57:04.627Z,5.56
2019-02-15T06:58:04.605Z,5.78
2019-02-15T06:59:04.609Z,5.91
2019-02-15T07:00:04.581Z,5.77
2019-02-15T07:01:04.593Z,6.00
2019-02-15T07:02:04.579Z,6.18
2019-02-15T07:03:04.561Z,6.38
2019-02-15T07:04:04.548Z,6.51
2019-02-15T07:05:04.538Z,6.61
2019-02-15T07:06:04.547Z,6.56
2019-02-15T07:07:04.509Z,6.61
2019-02-15T07:08:04.509Z,6.80
2019-02-15T07:09:04.504Z,6.98
2019-02-15T07:10:04.476Z,7.15
2019-02-15T07:11:04.460Z,7.41
2019-02-15T07:12:04.469Z,7.50
2019-02-15T07:13:04.462Z,7.66
2019-02-15T07:14:04.437Z,7.79
2019-02-15T07:15:04.435Z,7.90
2019-02-15T07:16:04.420Z,7.94
2019-02-15T07:17:04.403Z,7.85
2019-02-15T07:18:04.409Z,7.94
2019-02-15T07:19:04.374Z,8.02
2019-02-15T07:20:04.369Z,8.29
2019-02-15T07:21:04.364Z,8.35
2019-02-15T07:22:04.383Z,8.63
2019-02-15T07:23:04.343Z,8.75
2019-02-15T07:24:04.319Z,9.04
2019-02-15T07:25:04.316Z,9.28
2019-02-15T07:26:04.306Z,9.60
2019-02-15T07:27:04.298Z,9.88
2019-02-15T07:28:04.314Z,10.12
2019-02-15T07:29:04.275Z,10.37
2019-02-15T07:30:04.277Z,10.60
2019-02-15T07:31:04.240Z,10.92
2019-02-15T07:32:04.237Z,11.13
2019-02-15T07:33:04.250Z,11.35
2019-02-15T07:34:04.238Z,11.46
2019-02-15T07:35:04.212Z,11.56
2019-02-15T07:36:04.212Z,11.64
2019-02-15T07:37:04.184Z,11.75
2019-02-15T07:38:04.193Z,11.97
2019-02-15T07:39:04.157Z,12.04
2019-02-15T07:40:04.154Z,12.15
2019-02-15T07:41:04.142Z,12.26
2019-02-15T07:42:04.126Z,12.31
2019-02-15T07:43:04.112Z,12.56
2019-02-15T07:44:04.127Z,12.69
2019-02-15T07:45:04.103Z,12.97
2019-02-15T07:46:04.090Z,13.27
2019-02-15T07:47:04.081Z,13.47
2019-02-15T07:48:04.085Z,13.62
2019-02-15T07:49:04.057Z,13.83
2019-02-15T07:50:04.031Z,13.99
2019-02-15T07:51:09.665Z,14.31
2019-02-15T07:52:05.019Z,14.52
2019-02-15T07:53:04.034Z,15.02
2019-02-15T07:54:03.998Z,15.28
2019-02-15T07:55:03.996Z,15.64
2019-02-15T07:56:03.970Z,15.99
2019-02-15T07:57:03.953Z,16.33
2019-02-15T07:58:03.963Z,16.62
2019-02-15T07:59:04.024Z,16.93
2019-02-15T08:00:03.934Z,17.38
2019-02-15T08:01:03.940Z,17.73
2019-02-15T08:02:03.905Z,18.10
2019-02-15T08:03:03.946Z,18.43
2019-02-15T08:04:03.911Z,18.70
2019-02-15T08:05:03.875Z,19.06
2019-02-15T08:06:03.864Z,19.24
2019-02-15T08:07:03.944Z,19.29
2019-02-15T08:08:03.846Z,19.58
2019-02-15T08:09:03.987Z,19.76
2019-02-15T08:10:03.835Z,19.97
2019-02-15T08:11:03.813Z,20.10
2019-02-15T08:12:03.802Z,20.39
2019-02-15T08:13:03.779Z,20.54
2019-02-15T08:14:03.768Z,20.56
2019-02-15T08:15:03.787Z,20.61
2019-02-15T08:16:03.744Z,20.61
2019-02-15T08:17:03.729Z,20.76
2019-02-15T08:18:03.732Z,20.74
2019-02-15T08:19:03.717Z,20.81
2019-02-15T08:20:03.708Z,20.96
2019-02-15T08:21:03.718Z,21.05
2019-02-15T08:22:03.693Z,21.17
2019-02-15T08:23:03.683Z,21.27
2019-02-15T08:24:03.654Z,21.32
2019-02-15T08:25:03.653Z,21.44
2019-02-15T08:26:03.665Z,21.61
2019-02-15T08:27:03.638Z,21.59
2019-02-15T08:28:03.619Z,21.60
2019-02-15T08:29:03.607Z,21.67
2019-02-15T08:30:03.601Z,21.74
2019-02-15T08:31:03.603Z,22.02
2019-02-15T08:32:03.575Z,22.07
2019-02-15T08:33:03.582Z,22.28
2019-02-15T08:34:03.540Z,22.37
2019-02-15T08:35:03.536Z,22.50
2019-02-15T08:36:03.521Z,22.93
2019-02-15T08:37:03.514Z,23.01
2019-02-15T08:38:03.523Z,23.12
2019-02-15T08:39:03.496Z,23.46
2019-02-15T08:40:03.492Z,23.76
2019-02-15T08:41:03.515Z,24.05
2019-02-15T08:42:04.606Z,24.50
2019-02-15T08:43:03.447Z,24.94
2019-02-15T08:44:03.445Z,25.27
2019-02-15T08:45:03.440Z,25.38
2019-02-15T08:46:03.521Z,25.71
2019-02-15T08:47:03.426Z,26.08
2019-02-15T08:48:03.399Z,26.09
2019-02-15T08:49:03.385Z,26.32
2019-02-15T08:50:03.385Z,26.44
2019-02-15T08:51:03.362Z,26.72
2019-02-15T08:52:03.381Z,26.86
2019-02-15T08:53:03.346Z,26.83
2019-02-15T08:54:03.326Z,26.95
2019-02-15T08:55:03.342Z,26.89
2019-02-15T08:56:03.311Z,27.01
2019-02-15T08:57:03.298Z,26.77
2019-02-15T08:58:03.310Z,26.98
2019-02-15T08:59:03.289Z,27.19
2019-02-15T09:00:03.280Z,27.09
2019-02-15T09:01:03.250Z,27.21
2019-02-15T09:02:03.252Z,27.54
2019-02-15T09:03:03.260Z,27.29
2019-02-15T09:04:03.227Z,27.16
2019-02-15T09:05:03.228Z,27.16
2019-02-15T09:06:03.220Z,27.17
2019-02-15T09:07:03.193Z,27.32
2019-02-15T09:08:03.193Z,27.42
2019-02-15T09:09:03.169Z,27.13
2019-02-15T09:10:03.158Z,26.98
2019-02-15T09:11:03.167Z,27.04
2019-02-15T09:12:03.191Z,27.02
2019-02-15T09:13:03.150Z,26.80
2019-02-15T09:14:03.111Z,26.62
2019-02-15T09:15:03.099Z,26.54
2019-02-15T09:16:09.990Z,26.46
2019-02-15T09:17:04.084Z,26.50
2019-02-15T09:18:03.078Z,26.72
2019-02-15T09:19:03.054Z,26.91
2019-02-15T09:20:03.037Z,26.92
2019-02-15T09:21:03.034Z,26.96
2019-02-15T09:22:03.031Z,27.01
2019-02-15T09:23:03.055Z,27.17
2019-02-15T09:24:03.013Z,27.33
2019-02-15T09:25:03.001Z,27.32
2019-02-15T09:26:02.978Z,27.32
2019-02-15T09:27:02.973Z,27.36
2019-02-15T09:28:02.958Z,27.43
2019-02-15T09:29:02.964Z,27.41
2019-02-15T09:30:02.945Z,27.33
2019-02-15T09:31:02.938Z,27.53
2019-02-15T09:32:02.963Z,27.70
2019-02-15T09:33:02.908Z,27.91
2019-02-15T09:34:02.916Z,27.89
2019-02-15T09:35:02.896Z,27.96
2019-02-15T09:36:02.885Z,28.11
2019-02-15T09:37:02.945Z,28.07
2019-02-15T09:38:02.856Z,28.16
2019-02-15T09:39:02.866Z,28.09
2019-02-15T09:40:02.838Z,28.10
2019-02-15T09:41:02.830Z,28.06
2019-02-15T09:42:02.810Z,28.21
2019-02-15T09:43:02.802Z,28.44
2019-02-15T09:44:02.808Z,28.68
2019-02-15T09:45:02.775Z,28.80
2019-02-15T09:46:02.771Z,28.82
2019-02-15T09:47:02.825Z,29.08
2019-02-15T09:48:02.751Z,29.16
2019-02-15T09:49:02.771Z,29.23
2019-02-15T09:50:02.750Z,29.07
2019-02-15T09:51:02.706Z,29.11
2019-02-15T09:52:02.720Z,29.19
2019-02-15T09:53:02.684Z,28.73
2019-02-15T09:54:02.708Z,28.58
2019-02-15T09:55:02.678Z,28.54
2019-02-15T09:56:02.672Z,28.51
2019-02-15T09:57:02.644Z,28.72
2019-02-15T09:58:02.636Z,28.96
2019-02-15T09:59:02.635Z,29.06
2019-02-15T10:00:02.646Z,29.04
2019-02-15T10:01:02.638Z,29.07
2019-02-15T10:02:02.603Z,29.11
2019-02-15T10:03:02.583Z,29.16
2019-02-15T10:04:02.572Z,29.28
2019-02-15T10:05:02.597Z,29.55
2019-02-15T10:06:02.551Z,29.74
2019-02-15T10:07:02.548Z,29.89
2019-02-15T10:08:02.536Z,30.00
2019-02-15T10:09:02.535Z,29.86
2019-02-15T10:10:02.518Z,29.45
2019-02-15T10:11:02.521Z,29.62
2019-02-15T10:12:02.588Z,29.72
2019-02-15T10:13:02.495Z,29.68
2019-02-15T10:14:02.476Z,29.68
2019-02-15T10:15:02.459Z,29.53
2019-02-15T10:16:02.451Z,29.57
2019-02-15T10:17:02.459Z,29.70
2019-02-15T10:18:02.433Z,29.59
2019-02-15T10:19:02.433Z,29.59
2019-02-15T10:20:02.411Z,29.78
2019-02-15T10:21:02.411Z,29.63
2019-02-15T10:22:02.423Z,29.50
2019-02-15T10:23:02.374Z,29.37
2019-02-15T10:24:02.390Z,29.18
2019-02-15T10:25:02.344Z,29.03
2019-02-15T10:26:02.341Z,28.93
2019-02-15T10:27:02.362Z,28.70
2019-02-15T10:28:02.351Z,28.81
2019-02-15T10:29:02.306Z,28.77
2019-02-15T10:30:02.648Z,28.85
2019-02-15T10:31:02.298Z,28.96
2019-02-15T10:32:02.290Z,28.56
2019-02-15T10:33:02.320Z,28.46
2019-02-15T10:34:02.275Z,28.31
2019-02-15T10:35:02.249Z,28.35
2019-02-15T10:36:02.241Z,28.11
2019-02-15T10:37:02.245Z,28.33
2019-02-15T10:38:02.221Z,28.29
2019-02-15T10:39:02.243Z,28.25
2019-02-15T10:40:02.211Z,28.22
2019-02-15T10:41:02.192Z,28.19
2019-02-15T10:42:02.178Z,28.17
2019-02-15T10:43:02.161Z,28.13
2019-02-15T10:44:02.184Z,28.06
2019-02-15T10:45:02.156Z,28.06
2019-02-15T10:46:02.141Z,28.10
2019-02-15T10:47:02.127Z,27.89
2019-02-15T10:48:02.114Z,28.14
2019-02-15T10:49:02.100Z,28.14
2019-02-15T10:50:02.121Z,28.36
2019-02-15T10:51:02.092Z,28.54
2019-02-15T10:52:02.083Z,28.70
2019-02-15T10:53:02.072Z,28.91
2019-02-15T10:54:02.056Z,28.97
2019-02-15T10:55:02.056Z,29.07
2019-02-15T10:56:02.041Z,29.10
2019-02-15T10:57:02.013Z,29.13
2019-02-15T10:58:02.018Z,28.90
2019-02-15T10:59:02.031Z,28.96
2019-02-15T11:00:02.017Z,28.96
2019-02-15T11:01:01.990Z,29.18
2019-02-15T11:02:01.970Z,29.26
2019-02-15T11:03:01.967Z,29.22
2019-02-15T11:04:01.953Z,29.23
2019-02-15T11:05:01.968Z,29.20
2019-02-15T11:06:01.957Z,29.07
2019-02-15T11:07:01.909Z,29.07
2019-02-15T11:08:01.919Z,29.23
2019-02-15T11:09:01.903Z,29.31
2019-02-15T11:10:01.888Z,29.23
2019-02-15T11:11:01.903Z,29.37
2019-02-15T11:12:01.877Z,29.47
2019-02-15T11:13:01.878Z,29.37
2019-02-15T11:14:01.851Z,29.52
2019-02-15T11:15:01.880Z,29.52
2019-02-15T11:16:01.840Z,29.66
2019-02-15T11:17:03.194Z,29.84
2019-02-15T11:18:01.815Z,29.72
2019-02-15T11:19:01.783Z,29.75
2019-02-15T11:20:01.773Z,29.79
2019-02-15T11:21:01.791Z,29.90
2019-02-15T11:22:01.755Z,29.92
2019-02-15T11:23:01.755Z,29.94
2019-02-15T11:24:01.749Z,29.63
2019-02-15T11:25:01.736Z,29.49
2019-02-15T11:26:01.721Z,29.26
2019-02-15T11:27:01.725Z,29.28
2019-02-15T11:28:01.701Z,29.31
2019-02-15T11:29:01.681Z,29.56
2019-02-15T11:30:01.666Z,29.56
2019-02-15T11:31:01.695Z,29.77
2019-02-15T11:32:01.679Z,29.84
2019-02-15T11:33:01.643Z,29.82
2019-02-15T11:34:01.628Z,29.62
2019-02-15T11:35:01.642Z,29.38
2019-02-15T11:36:01.649Z,29.44
2019-02-15T11:37:01.609Z,29.35
2019-02-15T11:38:01.616Z,29.33
2019-02-15T11:39:01.587Z,29.34
2019-02-15T11:40:01.574Z,29.49
2019-02-15T11:41:10.728Z,29.60
2019-02-15T11:42:02.578Z,29.79
2019-02-15T11:43:01.549Z,29.93
2019-02-15T11:44:01.533Z,30.02
2019-02-15T11:45:01.526Z,30.03
2019-02-15T11:46:01.518Z,30.24
2019-02-15T11:47:01.491Z,30.05
2019-02-15T11:48:01.514Z,30.16
2019-02-15T11:49:01.482Z,30.08
2019-02-15T11:50:01.467Z,29.90
2019-02-15T11:51:01.451Z,29.94
2019-02-15T11:52:01.435Z,29.93
2019-02-15T11:53:01.468Z,29.75
2019-02-15T11:54:01.418Z,29.68
2019-02-15T11:55:01.415Z,29.38
2019-02-15T11:56:01.407Z,28.80
2019-02-15T11:57:01.394Z,27.98
2019-02-15T11:58:01.387Z,26.89
2019-02-15T11:59:01.391Z,25.56
2019-02-15T12:00:01.359Z,24.53
2019-02-15T12:01:01.349Z,23.24
2019-02-15T12:02:06.224Z,22.35
2019-02-15T12:03:02.350Z,21.60
2019-02-15T12:04:01.355Z,21.11
2019-02-15T12:05:01.304Z,20.49
2019-02-15T12:06:01.291Z,19.88
2019-02-15T12:07:01.287Z,19.42
2019-02-15T12:08:01.279Z,19.17
2019-02-15T12:09:01.302Z,18.74
2019-02-15T12:10:01.257Z,18.44
2019-02-15T12:11:01.238Z,18.29
2019-02-15T12:12:10.135Z,18.06
2019-02-15T12:13:02.216Z,17.73
2019-02-15T12:14:01.211Z,17.66
2019-02-15T12:15:01.237Z,17.48
2019-02-15T12:16:01.189Z,17.20
2019-02-15T12:17:05.612Z,16.98
2019-02-15T12:18:01.173Z,16.95
2019-02-15T12:19:01.151Z,16.73
2019-02-15T12:20:01.169Z,16.56
2019-02-15T12:21:01.136Z,16.55
2019-02-15T12:22:01.123Z,16.38
2019-02-15T12:23:01.113Z,16.41
2019-02-15T12:24:01.101Z,16.22
2019-02-15T12:25:01.083Z,16.15
2019-02-15T12:26:01.087Z,16.03
2019-02-15T12:27:01.073Z,15.89
2019-02-15T12:28:01.058Z,15.85
2019-02-15T12:29:01.045Z,15.78
2019-02-15T12:30:01.055Z,15.76
2019-02-15T12:31:01.043Z,15.67
2019-02-15T12:32:01.006Z,15.67
2019-02-15T12:33:00.991Z,15.59
2019-02-15T12:34:00.984Z,15.48
2019-02-15T12:35:00.992Z,15.52
2019-02-15T12:36:00.988Z,15.48
2019-02-15T12:37:00.959Z,15.38
2019-02-15T12:38:00.939Z,15.38
2019-02-15T12:39:00.945Z,15.39
2019-02-15T12:40:00.931Z,15.36
2019-02-15T12:41:00.940Z,15.23
2019-02-15T12:42:00.905Z,15.12
2019-02-15T12:43:00.900Z,15.03
2019-02-15T12:44:00.901Z,15.03
2019-02-15T12:45:00.868Z,14.93
2019-02-15T12:46:00.854Z,14.94
2019-02-15T12:47:00.870Z,14.81
2019-02-15T12:48:00.841Z,14.71
2019-02-15T12:49:00.828Z,14.68
2019-02-15T12:50:00.814Z,14.65
2019-02-15T12:51:00.800Z,14.53
2019-02-15T12:52:00.815Z,14.47
2019-02-15T12:53:00.840Z,14.35
2019-02-15T12:54:00.773Z,14.19
2019-02-15T12:55:00.750Z,13.99
2019-02-15T12:56:00.747Z,13.99
2019-02-15T12:57:00.733Z,13.92
2019-02-15T12:58:00.744Z,13.87
2019-02-15T12:59:00.716Z,13.87
2019-02-15T13:00:00.708Z,13.89
2019-02-15T13:01:00.715Z,13.79
2019-02-15T13:02:00.692Z,13.80
2019-02-15T13:03:00.685Z,13.79
2019-02-15T13:04:00.648Z,13.62
2019-02-15T13:05:00.652Z,13.69
2019-02-15T13:06:00.629Z,13.62
2019-02-15T13:07:00.630Z,13.65